sensor_id;sensor_type;location;lat;lon;timestamp;P1;durP1;ratioP1;P2;durP2;ratioP2
33738;SDS011;20063;51.730;11.110;2023-04-06T00:01:26;14.18;;;5.82;;
33738;SDS011;20063;51.730;11.110;2023-04-06T00:03:51;11.13;;;6.03;;
33738;SDS011;20063;51.730;11.110;2023-04-06T00:06:17;8.05;;;5.63;;
33738;SDS011;20063;51.730;11.110;2023-04-06T00:08:42;12.15;;;5.63;;
33738;SDS011;20063;51.730;11.110;2023-04-06T00:11:09;12.48;;;5.30;;
33738;SDS011;20063;51.730;11.110;2023-04-06T00:13:35;7.03;;;5.47;;
33738;SDS011;20063;51.730;11.110;2023-04-06T00:16:00;10.48;;;5.97;;
33738;SDS011;20063;51.730;11.110;2023-04-06T00:18:26;10.30;;;6.55;;
33738;SDS011;20063;51.730;11.110;2023-04-06T00:20:52;12.75;;;6.60;;
33738;SDS011;20063;51.730;11.110;2023-04-06T00:23:19;7.88;;;5.50;;
33738;SDS011;20063;51.730;11.110;2023-04-06T00:25:45;11.07;;;6.72;;
33738;SDS011;20063;51.730;11.110;2023-04-06T00:28:10;13.73;;;6.85;;
33738;SDS011;20063;51.730;11.110;2023-04-06T00:30:37;14.25;;;6.45;;
33738;SDS011;20063;51.730;11.110;2023-04-06T00:33:03;16.02;;;6.30;;
33738;SDS011;20063;51.730;11.110;2023-04-06T00:35:28;15.50;;;7.05;;
33738;SDS011;20063;51.730;11.110;2023-04-06T00:37:54;11.00;;;6.22;;
33738;SDS011;20063;51.730;11.110;2023-04-06T00:40:20;8.13;;;5.78;;
33738;SDS011;20063;51.730;11.110;2023-04-06T00:42:46;11.25;;;5.60;;
33738;SDS011;20063;51.730;11.110;2023-04-06T00:45:12;10.23;;;5.43;;
33738;SDS011;20063;51.730;11.110;2023-04-06T00:47:38;13.48;;;6.32;;
33738;SDS011;20063;51.730;11.110;2023-04-06T00:50:04;10.98;;;6.13;;
33738;SDS011;20063;51.730;11.110;2023-04-06T00:52:30;14.98;;;5.32;;
33738;SDS011;20063;51.730;11.110;2023-04-06T00:54:56;6.85;;;5.18;;
33738;SDS011;20063;51.730;11.110;2023-04-06T00:57:21;12.73;;;5.68;;
33738;SDS011;20063;51.730;11.110;2023-04-06T00:59:47;10.82;;;5.93;;
33738;SDS011;20063;51.730;11.110;2023-04-06T01:02:12;11.93;;;6.07;;
33738;SDS011;20063;51.730;11.110;2023-04-06T01:04:38;10.75;;;5.65;;
33738;SDS011;20063;51.730;11.110;2023-04-06T01:07:04;12.50;;;5.60;;
33738;SDS011;20063;51.730;11.110;2023-04-06T01:09:30;7.68;;;4.82;;
33738;SDS011;20063;51.730;11.110;2023-04-06T01:11:56;12.27;;;5.72;;
33738;SDS011;20063;51.730;11.110;2023-04-06T01:14:22;6.25;;;5.22;;
33738;SDS011;20063;51.730;11.110;2023-04-06T01:16:51;10.82;;;5.53;;
33738;SDS011;20063;51.730;11.110;2023-04-06T01:19:17;7.60;;;5.47;;
33738;SDS011;20063;51.730;11.110;2023-04-06T01:21:43;8.38;;;4.40;;
33738;SDS011;20063;51.730;11.110;2023-04-06T01:24:09;9.77;;;5.18;;
33738;SDS011;20063;51.730;11.110;2023-04-06T01:26:35;11.02;;;5.50;;
33738;SDS011;20063;51.730;11.110;2023-04-06T01:29:01;10.90;;;5.90;;
33738;SDS011;20063;51.730;11.110;2023-04-06T01:31:28;8.65;;;5.25;;
33738;SDS011;20063;51.730;11.110;2023-04-06T01:33:54;8.98;;;4.95;;
33738;SDS011;20063;51.730;11.110;2023-04-06T01:36:19;11.00;;;5.07;;
33738;SDS011;20063;51.730;11.110;2023-04-06T01:38:45;6.75;;;4.90;;
33738;SDS011;20063;51.730;11.110;2023-04-06T01:41:11;10.02;;;4.70;;
33738;SDS011;20063;51.730;11.110;2023-04-06T01:43:37;9.50;;;4.93;;
33738;SDS011;20063;51.730;11.110;2023-04-06T01:46:02;7.82;;;4.88;;
33738;SDS011;20063;51.730;11.110;2023-04-06T01:48:29;13.13;;;5.20;;
33738;SDS011;20063;51.730;11.110;2023-04-06T01:50:55;7.90;;;4.85;;
33738;SDS011;20063;51.730;11.110;2023-04-06T01:53:20;11.65;;;5.53;;
33738;SDS011;20063;51.730;11.110;2023-04-06T01:55:46;13.25;;;5.05;;
33738;SDS011;20063;51.730;11.110;2023-04-06T01:58:12;7.75;;;4.63;;
33738;SDS011;20063;51.730;11.110;2023-04-06T02:00:38;12.45;;;5.03;;
33738;SDS011;20063;51.730;11.110;2023-04-06T02:03:05;10.07;;;5.05;;
33738;SDS011;20063;51.730;11.110;2023-04-06T02:05:31;12.48;;;5.28;;
33738;SDS011;20063;51.730;11.110;2023-04-06T02:08:04;9.60;;;4.97;;
33738;SDS011;20063;51.730;11.110;2023-04-06T02:13:52;7.03;;;5.15;;
33738;SDS011;20063;51.730;11.110;2023-04-06T02:16:17;8.98;;;5.10;;
33738;SDS011;20063;51.730;11.110;2023-04-06T02:18:43;8.32;;;5.65;;
33738;SDS011;20063;51.730;11.110;2023-04-06T02:21:09;8.05;;;4.65;;
33738;SDS011;20063;51.730;11.110;2023-04-06T02:23:34;7.28;;;4.72;;
33738;SDS011;20063;51.730;11.110;2023-04-06T02:26:00;11.77;;;5.40;;
33738;SDS011;20063;51.730;11.110;2023-04-06T02:28:26;13.52;;;5.95;;
33738;SDS011;20063;51.730;11.110;2023-04-06T02:30:51;7.82;;;5.72;;
33738;SDS011;20063;51.730;11.110;2023-04-06T02:33:17;19.92;;;7.88;;
33738;SDS011;20063;51.730;11.110;2023-04-06T02:35:43;13.80;;;6.90;;
33738;SDS011;20063;51.730;11.110;2023-04-06T02:38:10;12.50;;;7.25;;
33738;SDS011;20063;51.730;11.110;2023-04-06T02:40:35;9.38;;;6.78;;
33738;SDS011;20063;51.730;11.110;2023-04-06T02:43:01;15.45;;;7.43;;
33738;SDS011;20063;51.730;11.110;2023-04-06T02:45:26;8.75;;;6.07;;
33738;SDS011;20063;51.730;11.110;2023-04-06T02:47:52;12.82;;;5.72;;
33738;SDS011;20063;51.730;11.110;2023-04-06T02:50:17;12.70;;;6.60;;
33738;SDS011;20063;51.730;11.110;2023-04-06T02:52:46;8.48;;;5.70;;
33738;SDS011;20063;51.730;11.110;2023-04-06T02:55:12;8.65;;;6.13;;
33738;SDS011;20063;51.730;11.110;2023-04-06T02:57:37;8.10;;;6.20;;
33738;SDS011;20063;51.730;11.110;2023-04-06T03:00:03;10.20;;;5.57;;
33738;SDS011;20063;51.730;11.110;2023-04-06T03:02:29;10.48;;;6.32;;
33738;SDS011;20063;51.730;11.110;2023-04-06T03:04:55;9.20;;;5.65;;
33738;SDS011;20063;51.730;11.110;2023-04-06T03:07:20;8.82;;;6.10;;
33738;SDS011;20063;51.730;11.110;2023-04-06T03:09:47;10.68;;;5.90;;
33738;SDS011;20063;51.730;11.110;2023-04-06T03:12:13;15.05;;;6.78;;
33738;SDS011;20063;51.730;11.110;2023-04-06T03:14:38;10.25;;;5.97;;
33738;SDS011;20063;51.730;11.110;2023-04-06T03:17:04;12.60;;;6.75;;
33738;SDS011;20063;51.730;11.110;2023-04-06T03:19:29;15.35;;;6.78;;
33738;SDS011;20063;51.730;11.110;2023-04-06T03:21:55;14.93;;;6.30;;
33738;SDS011;20063;51.730;11.110;2023-04-06T03:24:21;10.05;;;6.18;;
33738;SDS011;20063;51.730;11.110;2023-04-06T03:26:46;8.73;;;6.10;;
33738;SDS011;20063;51.730;11.110;2023-04-06T03:29:12;9.18;;;6.35;;
33738;SDS011;20063;51.730;11.110;2023-04-06T03:31:37;13.55;;;6.30;;
33738;SDS011;20063;51.730;11.110;2023-04-06T03:34:04;8.32;;;6.20;;
33738;SDS011;20063;51.730;11.110;2023-04-06T03:36:30;16.75;;;6.65;;
33738;SDS011;20063;51.730;11.110;2023-04-06T03:38:55;10.27;;;6.03;;
33738;SDS011;20063;51.730;11.110;2023-04-06T03:41:21;11.80;;;5.82;;
33738;SDS011;20063;51.730;11.110;2023-04-06T03:43:47;10.45;;;5.60;;
33738;SDS011;20063;51.730;11.110;2023-04-06T03:46:15;13.55;;;6.10;;
33738;SDS011;20063;51.730;11.110;2023-04-06T03:48:41;8.95;;;6.00;;
33738;SDS011;20063;51.730;11.110;2023-04-06T03:51:06;11.23;;;6.25;;
33738;SDS011;20063;51.730;11.110;2023-04-06T03:53:32;9.32;;;5.95;;
33738;SDS011;20063;51.730;11.110;2023-04-06T03:55:57;11.75;;;6.35;;
33738;SDS011;20063;51.730;11.110;2023-04-06T03:58:26;15.77;;;7.95;;
33738;SDS011;20063;51.730;11.110;2023-04-06T04:00:51;12.10;;;5.80;;
33738;SDS011;20063;51.730;11.110;2023-04-06T04:03:17;10.70;;;5.55;;
33738;SDS011;20063;51.730;11.110;2023-04-06T04:05:42;10.48;;;5.88;;
33738;SDS011;20063;51.730;11.110;2023-04-06T04:08:08;7.53;;;5.03;;
33738;SDS011;20063;51.730;11.110;2023-04-06T04:10:36;7.72;;;5.25;;
33738;SDS011;20063;51.730;11.110;2023-04-06T04:13:02;13.88;;;6.25;;
33738;SDS011;20063;51.730;11.110;2023-04-06T04:15:28;12.45;;;6.15;;
33738;SDS011;20063;51.730;11.110;2023-04-06T04:17:53;12.05;;;6.80;;
33738;SDS011;20063;51.730;11.110;2023-04-06T04:20:20;9.25;;;6.20;;
33738;SDS011;20063;51.730;11.110;2023-04-06T04:22:46;9.75;;;6.47;;
33738;SDS011;20063;51.730;11.110;2023-04-06T04:25:12;11.38;;;7.68;;
33738;SDS011;20063;51.730;11.110;2023-04-06T04:27:38;14.07;;;8.07;;
33738;SDS011;20063;51.730;11.110;2023-04-06T04:30:04;11.93;;;7.18;;
33738;SDS011;20063;51.730;11.110;2023-04-06T04:32:30;13.13;;;7.15;;
33738;SDS011;20063;51.730;11.110;2023-04-06T04:34:56;12.60;;;7.00;;
33738;SDS011;20063;51.730;11.110;2023-04-06T04:37:21;9.93;;;6.85;;
33738;SDS011;20063;51.730;11.110;2023-04-06T04:39:47;9.40;;;6.07;;
33738;SDS011;20063;51.730;11.110;2023-04-06T04:42:13;9.77;;;5.90;;
33738;SDS011;20063;51.730;11.110;2023-04-06T04:44:38;11.00;;;6.88;;
33738;SDS011;20063;51.730;11.110;2023-04-06T04:47:04;10.32;;;6.43;;
33738;SDS011;20063;51.730;11.110;2023-04-06T04:49:30;11.23;;;6.72;;
33738;SDS011;20063;51.730;11.110;2023-04-06T04:51:55;11.55;;;7.15;;
33738;SDS011;20063;51.730;11.110;2023-04-06T04:54:21;9.70;;;6.60;;
33738;SDS011;20063;51.730;11.110;2023-04-06T04:56:47;14.75;;;7.90;;
33738;SDS011;20063;51.730;11.110;2023-04-06T04:59:12;11.27;;;6.80;;
33738;SDS011;20063;51.730;11.110;2023-04-06T05:01:38;13.18;;;8.35;;
33738;SDS011;20063;51.730;11.110;2023-04-06T05:04:04;10.80;;;7.38;;
33738;SDS011;20063;51.730;11.110;2023-04-06T05:06:29;11.15;;;8.00;;
33738;SDS011;20063;51.730;11.110;2023-04-06T05:08:55;10.98;;;7.78;;
33738;SDS011;20063;51.730;11.110;2023-04-06T05:11:21;9.88;;;6.80;;
33738;SDS011;20063;51.730;11.110;2023-04-06T05:13:48;18.90;;;9.23;;
33738;SDS011;20063;51.730;11.110;2023-04-06T05:16:14;18.05;;;9.50;;
33738;SDS011;20063;51.730;11.110;2023-04-06T05:18:40;11.13;;;8.05;;
33738;SDS011;20063;51.730;11.110;2023-04-06T05:21:06;13.65;;;8.57;;
33738;SDS011;20063;51.730;11.110;2023-04-06T05:23:31;13.85;;;8.05;;
33738;SDS011;20063;51.730;11.110;2023-04-06T05:25:57;12.18;;;8.40;;
33738;SDS011;20063;51.730;11.110;2023-04-06T05:28:22;14.63;;;8.43;;
33738;SDS011;20063;51.730;11.110;2023-04-06T05:30:51;11.18;;;7.82;;
33738;SDS011;20063;51.730;11.110;2023-04-06T05:33:18;10.13;;;7.30;;
33738;SDS011;20063;51.730;11.110;2023-04-06T05:35:44;9.80;;;6.80;;
33738;SDS011;20063;51.730;11.110;2023-04-06T05:38:09;13.73;;;7.93;;
33738;SDS011;20063;51.730;11.110;2023-04-06T05:40:35;13.70;;;7.32;;
33738;SDS011;20063;51.730;11.110;2023-04-06T05:43:05;15.30;;;7.95;;
33738;SDS011;20063;51.730;11.110;2023-04-06T05:45:32;10.45;;;7.82;;
33738;SDS011;20063;51.730;11.110;2023-04-06T05:47:57;16.00;;;7.45;;
33738;SDS011;20063;51.730;11.110;2023-04-06T05:50:23;11.75;;;7.45;;
33738;SDS011;20063;51.730;11.110;2023-04-06T05:52:49;10.63;;;7.47;;
33738;SDS011;20063;51.730;11.110;2023-04-06T05:55:14;12.40;;;6.43;;
33738;SDS011;20063;51.730;11.110;2023-04-06T05:57:40;11.80;;;7.00;;
33738;SDS011;20063;51.730;11.110;2023-04-06T06:00:06;14.52;;;7.07;;
33738;SDS011;20063;51.730;11.110;2023-04-06T06:02:34;15.68;;;6.85;;
33738;SDS011;20063;51.730;11.110;2023-04-06T06:05:00;13.88;;;8.02;;
33738;SDS011;20063;51.730;11.110;2023-04-06T06:07:26;18.17;;;7.88;;
33738;SDS011;20063;51.730;11.110;2023-04-06T06:09:52;15.80;;;7.72;;
33738;SDS011;20063;51.730;11.110;2023-04-06T06:12:17;16.33;;;7.63;;
33738;SDS011;20063;51.730;11.110;2023-04-06T06:14:43;13.68;;;7.97;;
33738;SDS011;20063;51.730;11.110;2023-04-06T06:17:09;10.60;;;7.38;;
33738;SDS011;20063;51.730;11.110;2023-04-06T06:19:35;14.52;;;7.63;;
33738;SDS011;20063;51.730;11.110;2023-04-06T06:22:00;15.98;;;7.85;;
33738;SDS011;20063;51.730;11.110;2023-04-06T06:24:48;12.00;;;7.45;;
33738;SDS011;20063;51.730;11.110;2023-04-06T06:27:15;10.98;;;6.45;;
33738;SDS011;20063;51.730;11.110;2023-04-06T06:29:41;11.43;;;6.43;;
33738;SDS011;20063;51.730;11.110;2023-04-06T06:32:06;17.52;;;6.82;;
33738;SDS011;20063;51.730;11.110;2023-04-06T06:34:34;14.60;;;8.60;;
33738;SDS011;20063;51.730;11.110;2023-04-06T06:37:00;12.32;;;7.22;;
33738;SDS011;20063;51.730;11.110;2023-04-06T06:39:26;15.65;;;8.68;;
33738;SDS011;20063;51.730;11.110;2023-04-06T06:41:52;11.88;;;7.32;;
33738;SDS011;20063;51.730;11.110;2023-04-06T06:44:20;10.55;;;7.13;;
33738;SDS011;20063;51.730;11.110;2023-04-06T06:46:46;11.43;;;6.28;;
33738;SDS011;20063;51.730;11.110;2023-04-06T06:49:12;10.48;;;6.35;;
33738;SDS011;20063;51.730;11.110;2023-04-06T06:51:40;11.25;;;6.00;;
33738;SDS011;20063;51.730;11.110;2023-04-06T06:54:05;9.63;;;5.72;;
33738;SDS011;20063;51.730;11.110;2023-04-06T06:56:32;8.00;;;6.10;;
33738;SDS011;20063;51.730;11.110;2023-04-06T06:58:57;10.60;;;6.47;;
33738;SDS011;20063;51.730;11.110;2023-04-06T07:01:23;13.18;;;9.13;;
33738;SDS011;20063;51.730;11.110;2023-04-06T07:03:48;19.77;;;8.60;;
33738;SDS011;20063;51.730;11.110;2023-04-06T07:06:14;17.80;;;8.30;;
33738;SDS011;20063;51.730;11.110;2023-04-06T07:08:40;13.80;;;8.25;;
33738;SDS011;20063;51.730;11.110;2023-04-06T07:11:05;12.77;;;7.97;;
33738;SDS011;20063;51.730;11.110;2023-04-06T07:13:31;12.80;;;8.32;;
33738;SDS011;20063;51.730;11.110;2023-04-06T07:15:56;18.67;;;8.82;;
33738;SDS011;20063;51.730;11.110;2023-04-06T07:18:22;15.45;;;8.35;;
33738;SDS011;20063;51.730;11.110;2023-04-06T07:20:47;21.02;;;10.30;;
33738;SDS011;20063;51.730;11.110;2023-04-06T07:23:13;16.45;;;10.45;;
33738;SDS011;20063;51.730;11.110;2023-04-06T07:25:39;19.63;;;10.90;;
33738;SDS011;20063;51.730;11.110;2023-04-06T07:28:05;21.52;;;10.80;;
33738;SDS011;20063;51.730;11.110;2023-04-06T07:30:31;14.05;;;8.75;;
33738;SDS011;20063;51.730;11.110;2023-04-06T07:32:57;19.40;;;9.00;;
33738;SDS011;20063;51.730;11.110;2023-04-06T07:35:24;14.48;;;8.85;;
33738;SDS011;20063;51.730;11.110;2023-04-06T07:37:54;16.50;;;10.05;;
33738;SDS011;20063;51.730;11.110;2023-04-06T07:40:20;12.25;;;8.90;;
33738;SDS011;20063;51.730;11.110;2023-04-06T07:42:46;16.95;;;8.93;;
33738;SDS011;20063;51.730;11.110;2023-04-06T07:45:12;22.17;;;10.02;;
33738;SDS011;20063;51.730;11.110;2023-04-06T07:47:38;16.55;;;10.25;;
33738;SDS011;20063;51.730;11.110;2023-04-06T07:50:04;18.50;;;9.73;;
33738;SDS011;20063;51.730;11.110;2023-04-06T07:52:30;17.80;;;10.07;;
33738;SDS011;20063;51.730;11.110;2023-04-06T07:54:57;20.25;;;10.13;;
33738;SDS011;20063;51.730;11.110;2023-04-06T07:57:23;18.25;;;10.70;;
33738;SDS011;20063;51.730;11.110;2023-04-06T07:59:49;19.90;;;9.77;;
33738;SDS011;20063;51.730;11.110;2023-04-06T08:02:14;20.25;;;10.05;;
33738;SDS011;20063;51.730;11.110;2023-04-06T08:04:40;15.10;;;9.05;;
33738;SDS011;20063;51.730;11.110;2023-04-06T08:07:05;15.77;;;9.77;;
33738;SDS011;20063;51.730;11.110;2023-04-06T08:09:31;16.98;;;9.48;;
33738;SDS011;20063;51.730;11.110;2023-04-06T08:11:57;19.02;;;8.45;;
33738;SDS011;20063;51.730;11.110;2023-04-06T08:14:24;16.33;;;9.27;;
33738;SDS011;20063;51.730;11.110;2023-04-06T08:16:50;20.80;;;11.77;;
33738;SDS011;20063;51.730;11.110;2023-04-06T08:19:15;14.77;;;8.32;;
33738;SDS011;20063;51.730;11.110;2023-04-06T08:21:45;15.55;;;9.02;;
33738;SDS011;20063;51.730;11.110;2023-04-06T08:24:11;17.60;;;10.07;;
33738;SDS011;20063;51.730;11.110;2023-04-06T08:26:37;15.80;;;8.88;;
33738;SDS011;20063;51.730;11.110;2023-04-06T08:29:03;15.35;;;9.65;;
33738;SDS011;20063;51.730;11.110;2023-04-06T08:31:29;19.42;;;9.60;;
33738;SDS011;20063;51.730;11.110;2023-04-06T08:33:55;19.70;;;8.73;;
33738;SDS011;20063;51.730;11.110;2023-04-06T08:36:21;19.20;;;9.30;;
33738;SDS011;20063;51.730;11.110;2023-04-06T08:38:48;17.70;;;8.75;;
33738;SDS011;20063;51.730;11.110;2023-04-06T08:41:15;21.65;;;8.77;;
33738;SDS011;20063;51.730;11.110;2023-04-06T08:46:15;16.13;;;8.18;;
33738;SDS011;20063;51.730;11.110;2023-04-06T08:48:43;20.33;;;8.25;;
33738;SDS011;20063;51.730;11.110;2023-04-06T08:51:10;18.08;;;9.27;;
33738;SDS011;20063;51.730;11.110;2023-04-06T08:53:36;21.40;;;8.77;;
33738;SDS011;20063;51.730;11.110;2023-04-06T08:56:03;14.27;;;7.85;;
33738;SDS011;20063;51.730;11.110;2023-04-06T08:58:35;15.77;;;8.57;;
33738;SDS011;20063;51.730;11.110;2023-04-06T09:01:06;17.92;;;8.05;;
33738;SDS011;20063;51.730;11.110;2023-04-06T09:03:35;14.77;;;8.85;;
33738;SDS011;20063;51.730;11.110;2023-04-06T09:06:07;16.88;;;8.45;;
33738;SDS011;20063;51.730;11.110;2023-04-06T09:08:33;14.57;;;7.82;;
33738;SDS011;20063;51.730;11.110;2023-04-06T09:11:00;15.63;;;7.70;;
33738;SDS011;20063;51.730;11.110;2023-04-06T09:13:27;19.15;;;7.72;;
33738;SDS011;20063;51.730;11.110;2023-04-06T09:16:02;13.55;;;7.82;;
33738;SDS011;20063;51.730;11.110;2023-04-06T09:18:32;17.38;;;7.65;;
33738;SDS011;20063;51.730;11.110;2023-04-06T09:21:04;16.65;;;8.73;;
33738;SDS011;20063;51.730;11.110;2023-04-06T09:23:31;21.55;;;7.63;;
33738;SDS011;20063;51.730;11.110;2023-04-06T09:26:15;13.80;;;7.20;;
33738;SDS011;20063;51.730;11.110;2023-04-06T09:28:54;17.27;;;7.25;;
33738;SDS011;20063;51.730;11.110;2023-04-06T09:31:25;14.45;;;7.43;;
33738;SDS011;20063;51.730;11.110;2023-04-06T09:33:53;14.80;;;6.72;;
33738;SDS011;20063;51.730;11.110;2023-04-06T09:36:19;15.13;;;8.90;;
33738;SDS011;20063;51.730;11.110;2023-04-06T09:38:55;15.10;;;8.55;;
33738;SDS011;20063;51.730;11.110;2023-04-06T09:41:26;14.60;;;7.72;;
33738;SDS011;20063;51.730;11.110;2023-04-06T09:44:09;14.63;;;7.72;;
33738;SDS011;20063;51.730;11.110;2023-04-06T09:49:03;22.95;;;7.97;;
33738;SDS011;20063;51.730;11.110;2023-04-06T09:51:48;11.65;;;7.70;;
33738;SDS011;20063;51.730;11.110;2023-04-06T09:54:37;13.60;;;7.47;;
33738;SDS011;20063;51.730;11.110;2023-04-06T09:59:49;16.40;;;9.05;;
33738;SDS011;20063;51.730;11.110;2023-04-06T10:05:31;14.65;;;8.65;;
33738;SDS011;20063;51.730;11.110;2023-04-06T10:08:06;15.30;;;8.77;;
33738;SDS011;20063;51.730;11.110;2023-04-06T10:10:34;14.13;;;8.00;;
33738;SDS011;20063;51.730;11.110;2023-04-06T10:13:01;14.30;;;8.40;;
33738;SDS011;20063;51.730;11.110;2023-04-06T10:15:27;16.08;;;8.63;;
33738;SDS011;20063;51.730;11.110;2023-04-06T10:17:54;13.02;;;8.00;;
33738;SDS011;20063;51.730;11.110;2023-04-06T10:20:22;14.02;;;7.75;;
33738;SDS011;20063;51.730;11.110;2023-04-06T10:22:55;14.18;;;8.30;;
33738;SDS011;20063;51.730;11.110;2023-04-06T10:25:53;12.48;;;8.10;;
33738;SDS011;20063;51.730;11.110;2023-04-06T10:28:23;15.15;;;7.55;;
33738;SDS011;20063;51.730;11.110;2023-04-06T10:30:59;14.60;;;8.43;;
33738;SDS011;20063;51.730;11.110;2023-04-06T10:33:26;12.82;;;7.75;;
33738;SDS011;20063;51.730;11.110;2023-04-06T10:35:53;18.58;;;8.23;;
33738;SDS011;20063;51.730;11.110;2023-04-06T10:38:20;13.68;;;7.85;;
33738;SDS011;20063;51.730;11.110;2023-04-06T10:40:47;16.90;;;7.90;;
33738;SDS011;20063;51.730;11.110;2023-04-06T10:43:14;12.77;;;7.47;;
33738;SDS011;20063;51.730;11.110;2023-04-06T10:45:44;18.60;;;7.13;;
33738;SDS011;20063;51.730;11.110;2023-04-06T10:48:18;12.30;;;6.97;;
33738;SDS011;20063;51.730;11.110;2023-04-06T10:50:44;11.93;;;7.45;;
33738;SDS011;20063;51.730;11.110;2023-04-06T10:53:20;18.23;;;7.55;;
33738;SDS011;20063;51.730;11.110;2023-04-06T10:55:46;13.13;;;8.50;;
33738;SDS011;20063;51.730;11.110;2023-04-06T10:58:12;14.18;;;7.20;;
33738;SDS011;20063;51.730;11.110;2023-04-06T11:00:43;14.18;;;8.10;;
33738;SDS011;20063;51.730;11.110;2023-04-06T11:03:13;16.63;;;7.70;;
33738;SDS011;20063;51.730;11.110;2023-04-06T11:05:45;17.63;;;7.40;;
33738;SDS011;20063;51.730;11.110;2023-04-06T11:08:28;12.82;;;7.47;;
33738;SDS011;20063;51.730;11.110;2023-04-06T11:11:08;16.40;;;6.85;;
33738;SDS011;20063;51.730;11.110;2023-04-06T11:13:44;12.35;;;6.90;;
33738;SDS011;20063;51.730;11.110;2023-04-06T11:24:25;13.60;;;7.18;;
33738;SDS011;20063;51.730;11.110;2023-04-06T11:26:54;10.85;;;6.93;;
33738;SDS011;20063;51.730;11.110;2023-04-06T11:29:22;13.27;;;6.80;;
33738;SDS011;20063;51.730;11.110;2023-04-06T11:31:52;11.98;;;7.22;;
33738;SDS011;20063;51.730;11.110;2023-04-06T11:34:19;12.82;;;7.47;;
33738;SDS011;20063;51.730;11.110;2023-04-06T11:37:00;17.08;;;7.95;;
33738;SDS011;20063;51.730;11.110;2023-04-06T11:39:27;13.68;;;7.68;;
33738;SDS011;20063;51.730;11.110;2023-04-06T11:41:55;17.77;;;7.55;;
33738;SDS011;20063;51.730;11.110;2023-04-06T11:44:39;13.38;;;6.60;;
33738;SDS011;20063;51.730;11.110;2023-04-06T11:47:11;16.83;;;6.97;;
33738;SDS011;20063;51.730;11.110;2023-04-06T11:49:38;18.08;;;6.57;;
33738;SDS011;20063;51.730;11.110;2023-04-06T11:52:14;9.55;;;5.82;;
33738;SDS011;20063;51.730;11.110;2023-04-06T11:54:46;13.40;;;8.13;;
33738;SDS011;20063;51.730;11.110;2023-04-06T11:57:13;14.52;;;8.65;;
33738;SDS011;20063;51.730;11.110;2023-04-06T11:59:40;12.77;;;7.68;;
33738;SDS011;20063;51.730;11.110;2023-04-06T12:02:06;13.18;;;8.07;;
33738;SDS011;20063;51.730;11.110;2023-04-06T12:04:31;14.43;;;8.30;;
33738;SDS011;20063;51.730;11.110;2023-04-06T12:06:57;15.50;;;8.23;;
33738;SDS011;20063;51.730;11.110;2023-04-06T12:09:23;21.33;;;8.30;;
33738;SDS011;20063;51.730;11.110;2023-04-06T12:11:50;17.05;;;8.23;;
33738;SDS011;20063;51.730;11.110;2023-04-06T12:14:16;13.55;;;6.97;;
33738;SDS011;20063;51.730;11.110;2023-04-06T12:16:41;15.57;;;7.63;;
33738;SDS011;20063;51.730;11.110;2023-04-06T12:19:07;9.90;;;6.75;;
33738;SDS011;20063;51.730;11.110;2023-04-06T12:21:33;13.85;;;7.22;;
33738;SDS011;20063;51.730;11.110;2023-04-06T12:24:01;13.55;;;6.68;;
33738;SDS011;20063;51.730;11.110;2023-04-06T12:26:27;15.60;;;6.38;;
33738;SDS011;20063;51.730;11.110;2023-04-06T12:28:53;10.00;;;6.05;;
33738;SDS011;20063;51.730;11.110;2023-04-06T12:31:20;11.35;;;6.57;;
33738;SDS011;20063;51.730;11.110;2023-04-06T12:33:47;13.30;;;7.53;;
33738;SDS011;20063;51.730;11.110;2023-04-06T12:36:14;14.35;;;7.72;;
33738;SDS011;20063;51.730;11.110;2023-04-06T12:38:40;9.13;;;5.15;;
33738;SDS011;20063;51.730;11.110;2023-04-06T12:41:07;10.27;;;6.05;;
33738;SDS011;20063;51.730;11.110;2023-04-06T12:43:32;11.75;;;6.97;;
33738;SDS011;20063;51.730;11.110;2023-04-06T12:45:58;16.00;;;7.78;;
33738;SDS011;20063;51.730;11.110;2023-04-06T12:48:24;14.93;;;6.97;;
33738;SDS011;20063;51.730;11.110;2023-04-06T12:50:54;14.52;;;6.45;;
33738;SDS011;20063;51.730;11.110;2023-04-06T12:53:23;9.85;;;5.90;;
33738;SDS011;20063;51.730;11.110;2023-04-06T12:55:51;10.85;;;6.40;;
33738;SDS011;20063;51.730;11.110;2023-04-06T12:58:17;12.15;;;5.97;;
33738;SDS011;20063;51.730;11.110;2023-04-06T13:00:42;9.35;;;6.10;;
33738;SDS011;20063;51.730;11.110;2023-04-06T13:03:09;9.68;;;5.65;;
33738;SDS011;20063;51.730;11.110;2023-04-06T13:05:35;8.82;;;5.35;;
33738;SDS011;20063;51.730;11.110;2023-04-06T13:08:01;14.65;;;6.38;;
33738;SDS011;20063;51.730;11.110;2023-04-06T13:10:26;9.57;;;5.75;;
33738;SDS011;20063;51.730;11.110;2023-04-06T13:12:52;17.23;;;6.85;;
33738;SDS011;20063;51.730;11.110;2023-04-06T13:15:18;12.00;;;5.75;;
33738;SDS011;20063;51.730;11.110;2023-04-06T13:17:43;8.45;;;4.90;;
33738;SDS011;20063;51.730;11.110;2023-04-06T13:20:10;8.48;;;5.30;;
33738;SDS011;20063;51.730;11.110;2023-04-06T13:22:36;12.15;;;6.75;;
33738;SDS011;20063;51.730;11.110;2023-04-06T13:25:01;11.73;;;6.40;;
33738;SDS011;20063;51.730;11.110;2023-04-06T13:27:27;9.20;;;6.25;;
33738;SDS011;20063;51.730;11.110;2023-04-06T13:29:53;15.07;;;7.80;;
33738;SDS011;20063;51.730;11.110;2023-04-06T13:32:19;10.48;;;6.10;;
33738;SDS011;20063;51.730;11.110;2023-04-06T13:34:46;10.10;;;6.32;;
33738;SDS011;20063;51.730;11.110;2023-04-06T13:37:13;10.27;;;6.93;;
33738;SDS011;20063;51.730;11.110;2023-04-06T13:39:40;14.85;;;8.13;;
33738;SDS011;20063;51.730;11.110;2023-04-06T13:42:06;13.68;;;6.93;;
33738;SDS011;20063;51.730;11.110;2023-04-06T13:44:32;14.80;;;6.55;;
33738;SDS011;20063;51.730;11.110;2023-04-06T13:46:57;12.73;;;5.50;;
33738;SDS011;20063;51.730;11.110;2023-04-06T13:49:23;13.35;;;7.95;;
33738;SDS011;20063;51.730;11.110;2023-04-06T13:51:52;14.43;;;7.80;;
33738;SDS011;20063;51.730;11.110;2023-04-06T13:54:17;11.82;;;6.88;;
33738;SDS011;20063;51.730;11.110;2023-04-06T13:56:46;13.27;;;7.00;;
33738;SDS011;20063;51.730;11.110;2023-04-06T13:59:11;10.20;;;6.38;;
33738;SDS011;20063;51.730;11.110;2023-04-06T14:01:37;10.18;;;5.95;;
33738;SDS011;20063;51.730;11.110;2023-04-06T14:04:02;13.73;;;7.18;;
33738;SDS011;20063;51.730;11.110;2023-04-06T14:06:28;12.98;;;6.15;;
33738;SDS011;20063;51.730;11.110;2023-04-06T14:08:57;11.88;;;6.22;;
33738;SDS011;20063;51.730;11.110;2023-04-06T14:11:23;12.85;;;8.13;;
33738;SDS011;20063;51.730;11.110;2023-04-06T14:13:48;12.70;;;5.57;;
33738;SDS011;20063;51.730;11.110;2023-04-06T14:16:14;11.90;;;7.30;;
33738;SDS011;20063;51.730;11.110;2023-04-06T14:18:40;11.73;;;7.15;;
33738;SDS011;20063;51.730;11.110;2023-04-06T14:21:05;8.70;;;5.55;;
33738;SDS011;20063;51.730;11.110;2023-04-06T14:23:31;11.45;;;6.03;;
33738;SDS011;20063;51.730;11.110;2023-04-06T14:26:04;13.82;;;6.95;;
33738;SDS011;20063;51.730;11.110;2023-04-06T14:28:31;10.07;;;6.55;;
33738;SDS011;20063;51.730;11.110;2023-04-06T14:30:58;16.58;;;7.03;;
33738;SDS011;20063;51.730;11.110;2023-04-06T14:33:29;10.02;;;5.88;;
33738;SDS011;20063;51.730;11.110;2023-04-06T14:35:55;10.75;;;6.13;;
33738;SDS011;20063;51.730;11.110;2023-04-06T14:38:21;12.45;;;6.85;;
33738;SDS011;20063;51.730;11.110;2023-04-06T14:40:47;15.13;;;7.90;;
33738;SDS011;20063;51.730;11.110;2023-04-06T14:43:13;12.25;;;7.65;;
33738;SDS011;20063;51.730;11.110;2023-04-06T14:45:38;18.42;;;7.85;;